Time;durP1;ratioP1;P1;durP2;ratioP2;P2;SDS_P1;SDS_P2;PMS_P1;PMS_P2;Temp;Humidity;BMP_temperature;BMP_pressure;BME280_temperature;BME280_humidity;BME280_pressure;Samples;Min_cycle;Max_cycle;Signal;HPM_P1;HPM_P2
2021/06/04 00:00:10;;;;;;;21.65;13.27;;;;;;;;;;5050886;28;20160;-84
2021/06/04 00:02:35;;;;;;;26.83;14.60;;;;;;;;;;5051343;28;20039;-84
2021/06/04 00:05:00;;;;;;;19.65;13.48;;;;;;;;;;5084688;28;20107;-84
2021/06/04 00:07:26;;;;;;;24.25;14.43;;;;;;;;;;5051817;28;20025;-84
2021/06/04 00:09:51;;;;;;;22.58;13.32;;;;;;;;;;5054645;28;20419;-84
2021/06/04 00:12:16;;;;;;;28.08;13.55;;;;;;;;;;5054378;28;20056;-84
2021/06/04 00:14:42;;;;;;;29.05;14.40;;;;;;;;;;5054804;28;20071;-84
2021/06/04 00:17:13;;;;;;;29.42;14.32;;;;;;;;;;5055841;28;20389;-84
2021/06/04 00:19:39;;;;;;;26.50;15.07;;;;;;;;;;5054657;28;20103;-84
2021/06/04 00:22:07;;;;;;;26.80;14.25;;;;;;;;;;5054534;28;20043;-84
2021/06/04 00:24:33;;;;;;;26.35;14.93;;;;;;;;;;5054515;28;20037;-84
2021/06/04 00:26:58;;;;;;;23.25;13.68;;;;;;;;;;5054425;28;20017;-84
2021/06/04 00:29:23;;;;;;;23.15;13.55;;;;;;;;;;5055288;28;20487;-84
2021/06/04 00:31:50;;;;;;;23.60;13.77;;;;;;;;;;5054358;28;20491;-84
2021/06/04 00:34:15;;;;;;;25.60;14.13;;;;;;;;;;5054183;28;20459;-84
2021/06/04 00:36:41;;;;;;;21.42;12.85;;;;;;;;;;5054317;28;20082;-84
2021/06/04 00:39:08;;;;;;;27.08;12.80;;;;;;;;;;5053909;28;20074;-84
2021/06/04 00:41:45;;;;;;;23.90;13.18;;;;;;;;;;5051163;28;20033;-84
2021/06/04 00:44:11;;;;;;;23.90;13.15;;;;;;;;;;5053390;28;20017;-84
2021/06/04 00:46:37;;;;;;;22.65;13.18;;;;;;;;;;5054839;28;20024;-84
2021/06/04 00:49:03;;;;;;;21.40;12.82;;;;;;;;;;5053447;28;20101;-84
2021/06/04 00:51:30;;;;;;;24.23;12.05;;;;;;;;;;5053210;28;20025;-84
2021/06/04 00:53:56;;;;;;;20.48;12.30;;;;;;;;;;5053252;28;20021;-84
2021/06/04 00:56:23;;;;;;;30.80;14.55;;;;;;;;;;5053425;28;20551;-84
2021/06/04 00:58:49;;;;;;;21.27;12.50;;;;;;;;;;5053344;28;20036;-84
2021/06/04 01:01:16;;;;;;;22.70;12.45;;;;;;;;;;5053258;28;20021;-84
2021/06/04 01:03:49;;;;;;;26.15;13.13;;;;;;;;;;5054491;28;20027;-84
2021/06/04 01:06:20;;;;;;;32.28;14.13;;;;;;;;;;5054948;28;20029;-84
2021/06/04 01:08:53;;;;;;;22.27;12.35;;;;;;;;;;5053200;28;20017;-84
2021/06/04 01:11:37;;;;;;;29.70;13.23;;;;;;;;;;5053198;28;20424;-84
2021/06/04 01:14:21;;;;;;;27.02;13.32;;;;;;;;;;5057681;28;20017;-84
2021/06/04 01:16:57;;;;;;;25.42;13.60;;;;;;;;;;5052769;28;20124;-84
2021/06/04 01:19:26;;;;;;;24.40;13.73;;;;;;;;;;5052583;28;20028;-84
2021/06/04 01:21:54;;;;;;;26.85;14.05;;;;;;;;;;5052476;28;20025;-84
2021/06/04 01:24:38;;;;;;;26.63;14.07;;;;;;;;;;5052692;28;20362;-84
2021/06/04 01:27:07;;;;;;;22.17;13.25;;;;;;;;;;5086124;28;20100;-84
2021/06/04 01:29:35;;;;;;;24.77;12.88;;;;;;;;;;5053622;28;20037;-84
2021/06/04 01:32:03;;;;;;;24.30;13.55;;;;;;;;;;5052608;28;20021;-84
2021/06/04 01:34:31;;;;;;;23.60;14.45;;;;;;;;;;5052395;28;20024;-84
2021/06/04 01:36:58;;;;;;;20.52;13.40;;;;;;;;;;5053444;28;20357;-84
2021/06/04 01:39:31;;;;;;;25.73;13.30;;;;;;;;;;5053769;28;20044;-84
2021/06/04 01:41:58;;;;;;;20.55;12.70;;;;;;;;;;5052367;28;20464;-84
2021/06/04 01:44:30;;;;;;;26.70;13.50;;;;;;;;;;5052073;28;20031;-84
2021/06/04 01:46:59;;;;;;;21.63;14.02;;;;;;;;;;5085761;28;20021;-84
2021/06/04 01:49:26;;;;;;;23.02;13.60;;;;;;;;;;5051576;28;20021;-84
2021/06/04 01:51:57;;;;;;;22.05;13.27;;;;;;;;;;5052029;28;20037;-84
2021/06/04 01:54:43;;;;;;;21.27;13.90;;;;;;;;;;5052020;28;20021;-84
2021/06/04 01:57:10;;;;;;;24.20;13.57;;;;;;;;;;5051954;28;20031;-84
2021/06/04 01:59:41;;;;;;;26.88;13.07;;;;;;;;;;5053133;28;20078;-83
2021/06/04 02:02:06;;;;;;;25.02;13.38;;;;;;;;;;5053455;28;20437;-84
2021/06/04 02:04:33;;;;;;;29.92;15.30;;;;;;;;;;5052997;28;20094;-84
2021/06/04 02:07:03;;;;;;;20.55;13.75;;;;;;;;;;5049703;28;20025;-84
2021/06/04 02:09:28;;;;;;;21.00;13.43;;;;;;;;;;5051178;28;20107;-84
2021/06/04 02:11:55;;;;;;;22.95;13.48;;;;;;;;;;5051874;28;20047;-84
2021/06/04 02:14:25;;;;;;;25.08;13.65;;;;;;;;;;5051778;28;20543;-84
2021/06/04 02:16:59;;;;;;;26.60;14.43;;;;;;;;;;5051765;28;20017;-84
2021/06/04 02:19:57;;;;;;;29.17;14.55;;;;;;;;;;5060799;28;20024;-84
2021/06/04 02:22:32;;;;;;;33.92;14.73;;;;;;;;;;5059002;28;20029;-83
2021/06/04 02:25:02;;;;;;;28.42;13.60;;;;;;;;;;5051643;28;20149;-84
2021/06/04 02:27:34;;;;;;;22.65;13.63;;;;;;;;;;5051590;28;20440;-84
2021/06/04 02:30:04;;;;;;;26.75;13.45;;;;;;;;;;5084987;28;20017;-84
2021/06/04 02:32:40;;;;;;;22.05;13.38;;;;;;;;;;5051588;28;20380;-84
2021/06/04 02:35:05;;;;;;;20.45;13.35;;;;;;;;;;5051627;28;20048;-84
2021/06/04 02:37:33;;;;;;;26.25;13.43;;;;;;;;;;5084937;28;20362;-84
2021/06/04 02:40:00;;;;;;;22.45;12.65;;;;;;;;;;5051462;28;20356;-84
2021/06/04 02:42:28;;;;;;;23.10;13.85;;;;;;;;;;5051089;28;20028;-84
2021/06/04 02:44:59;;;;;;;21.35;13.27;;;;;;;;;;5037597;28;20021;-84
2021/06/04 02:47:31;;;;;;;27.50;12.93;;;;;;;;;;5052750;28;20518;-84
2021/06/04 02:49:56;;;;;;;24.73;14.15;;;;;;;;;;5051279;28;20070;-84
2021/06/04 02:52:38;;;;;;;22.50;13.23;;;;;;;;;;5051625;28;20115;-84
2021/06/04 02:55:06;;;;;;;23.13;14.48;;;;;;;;;;5051139;28;20017;-84
2021/06/04 02:57:32;;;;;;;22.55;14.63;;;;;;;;;;5051254;28;20050;-84
2021/06/04 02:59:58;;;;;;;27.92;16.75;;;;;;;;;;5051195;28;20021;-84
2021/06/04 03:02:28;;;;;;;32.03;14.57;;;;;;;;;;5051171;28;20535;-84
2021/06/04 03:04:55;;;;;;;22.50;14.02;;;;;;;;;;5050450;28;20021;-84
2021/06/04 03:07:24;;;;;;;25.58;14.82;;;;;;;;;;5050919;28;20021;-84
2021/06/04 03:09:50;;;;;;;27.80;15.93;;;;;;;;;;5050930;28;20071;-83
2021/06/04 03:12:21;;;;;;;24.65;14.75;;;;;;;;;;5051192;28;20395;-83
2021/06/04 03:14:47;;;;;;;23.15;14.35;;;;;;;;;;5050878;28;20032;-84
2021/06/04 03:17:13;;;;;;;27.10;16.10;;;;;;;;;;5084359;28;20017;-84
2021/06/04 03:19:39;;;;;;;23.67;14.40;;;;;;;;;;5051080;28;20027;-83
2021/06/04 03:22:24;;;;;;;26.00;14.60;;;;;;;;;;5050688;28;20387;-83
2021/06/04 03:24:49;;;;;;;23.65;15.20;;;;;;;;;;5050655;28;20120;-84
2021/06/04 03:27:16;;;;;;;26.17;14.13;;;;;;;;;;5050791;28;20125;-84
2021/06/04 03:29:41;;;;;;;27.27;13.65;;;;;;;;;;5050894;28;20024;-83
2021/06/04 03:32:08;;;;;;;22.95;14.60;;;;;;;;;;5050806;28;20100;-83
2021/06/04 03:34:34;;;;;;;25.85;15.60;;;;;;;;;;5050392;28;20084;-83
2021/06/04 03:37:00;;;;;;;31.38;15.68;;;;;;;;;;5050407;28;20030;-83
2021/06/04 03:39:30;;;;;;;30.60;17.42;;;;;;;;;;5050570;28;20017;-83
2021/06/04 03:41:55;;;;;;;31.92;17.23;;;;;;;;;;5084281;28;20090;-84
2021/06/04 03:44:23;;;;;;;34.22;17.10;;;;;;;;;;5053861;28;20283;-83
2021/06/04 03:46:48;;;;;;;27.13;16.20;;;;;;;;;;5054409;28;20028;-83
2021/06/04 03:49:15;;;;;;;26.98;16.45;;;;;;;;;;5055424;28;20461;-83
2021/06/04 03:51:41;;;;;;;30.67;16.33;;;;;;;;;;5054269;28;20388;-84
2021/06/04 03:54:07;;;;;;;24.20;15.07;;;;;;;;;;5054174;28;20047;-84
2021/06/04 03:56:33;;;;;;;26.02;16.60;;;;;;;;;;5054228;28;20107;-84
2021/06/04 03:58:58;;;;;;;28.55;16.38;;;;;;;;;;5054225;28;20053;-83
2021/06/04 04:01:29;;;;;;;29.08;17.33;;;;;;;;;;5054037;28;20017;-84
2021/06/04 04:03:54;;;;;;;30.17;16.55;;;;;;;;;;5053402;28;20391;-84
2021/06/04 04:06:19;;;;;;;26.17;16.70;;;;;;;;;;5053988;28;20099;-84
2021/06/04 04:08:45;;;;;;;26.20;16.17;;;;;;;;;;5054285;28;20032;-84
2021/06/04 04:11:10;;;;;;;25.63;16.25;;;;;;;;;;5055156;28;20019;-83
2021/06/04 04:13:35;;;;;;;26.42;16.98;;;;;;;;;;5054991;28;20053;-84
2021/06/04 04:16:00;;;;;;;29.98;18.48;;;;;;;;;;5054179;28;20029;-84
2021/06/04 04:18:26;;;;;;;28.60;16.67;;;;;;;;;;5053784;28;20028;-84
2021/06/04 04:20:53;;;;;;;28.80;16.88;;;;;;;;;;5054113;28;20031;-83
2021/06/04 04:23:26;;;;;;;31.02;17.40;;;;;;;;;;5054049;28;20021;-84
2021/06/04 04:25:52;;;;;;;27.92;16.48;;;;;;;;;;5053961;28;20020;-83
2021/06/04 04:28:19;;;;;;;28.23;17.92;;;;;;;;;;5053944;28;20064;-83
2021/06/04 04:30:44;;;;;;;35.13;18.95;;;;;;;;;;5053508;28;20468;-83
2021/06/04 04:33:10;;;;;;;28.85;17.52;;;;;;;;;;5053375;28;20096;-83
2021/06/04 04:35:37;;;;;;;30.15;18.35;;;;;;;;;;5053512;28;20243;-84
2021/06/04 04:38:04;;;;;;;35.03;19.77;;;;;;;;;;5062022;28;20407;-84
2021/06/04 04:40:30;;;;;;;31.67;19.00;;;;;;;;;;5058847;28;20044;-84
2021/06/04 04:42:55;;;;;;;38.72;19.88;;;;;;;;;;5053444;28;20314;-83
2021/06/04 04:45:22;;;;;;;31.33;18.60;;;;;;;;;;5053583;28;20035;-83
2021/06/04 04:47:47;;;;;;;33.20;18.63;;;;;;;;;;5053354;28;20036;-84
2021/06/04 04:50:13;;;;;;;34.75;19.30;;;;;;;;;;5053506;28;20013;-83
2021/06/04 04:52:39;;;;;;;35.85;19.50;;;;;;;;;;5053267;28;20037;-83
2021/06/04 04:55:05;;;;;;;38.17;19.65;;;;;;;;;;5054268;28;20029;-84
2021/06/04 04:57:31;;;;;;;38.55;21.00;;;;;;;;;;5053242;28;20021;-84
2021/06/04 04:59:56;;;;;;;45.30;21.75;;;;;;;;;;5052951;28;20074;-83
2021/06/04 05:02:22;;;;;;;35.47;21.58;;;;;;;;;;5052966;28;20029;-84
2021/06/04 05:04:47;;;;;;;40.22;23.10;;;;;;;;;;5052672;28;20021;-84
2021/06/04 05:07:12;;;;;;;46.20;23.27;;;;;;;;;;5052848;28;20023;-84
2021/06/04 05:09:38;;;;;;;39.38;22.58;;;;;;;;;;5052702;28;20021;-84
2021/06/04 05:12:03;;;;;;;41.35;22.70;;;;;;;;;;5052796;28;20104;-84
2021/06/04 05:14:28;;;;;;;38.03;21.83;;;;;;;;;;5053976;28;20032;-84
2021/06/04 05:16:54;;;;;;;37.53;21.33;;;;;;;;;;5052431;28;20021;-84
2021/06/04 05:19:19;;;;;;;41.22;23.05;;;;;;;;;;5052886;28;20037;-84
2021/06/04 05:21:44;;;;;;;39.60;22.13;;;;;;;;;;5053762;28;20035;-84
2021/06/04 05:24:09;;;;;;;40.30;22.02;;;;;;;;;;5052532;28;20033;-84
2021/06/04 05:26:35;;;;;;;37.75;21.55;;;;;;;;;;5052512;28;20021;-83
2021/06/04 05:29:00;;;;;;;36.65;21.30;;;;;;;;;;5053027;28;20032;-84
2021/06/04 05:31:25;;;;;;;37.90;21.27;;;;;;;;;;5052662;28;20025;-84
2021/06/04 05:33:52;;;;;;;40.97;19.95;;;;;;;;;;5053826;28;20013;-84
2021/06/04 05:36:19;;;;;;;34.00;18.55;;;;;;;;;;5053980;28;20080;-84
2021/06/04 05:38:45;;;;;;;34.03;18.90;;;;;;;;;;5053862;28;20410;-83
2021/06/04 05:41:10;;;;;;;36.47;19.13;;;;;;;;;;5052467;28;20013;-84
2021/06/04 05:43:37;;;;;;;37.60;18.90;;;;;;;;;;5053288;28;20028;-84
2021/06/04 05:46:03;;;;;;;36.72;19.23;;;;;;;;;;5052151;28;20025;-84
2021/06/04 05:48:28;;;;;;;31.15;18.70;;;;;;;;;;5052254;28;20029;-84
2021/06/04 05:50:55;;;;;;;35.60;19.15;;;;;;;;;;5052118;28;20049;-84
2021/06/04 05:53:23;;;;;;;35.60;19.60;;;;;;;;;;5053525;28;20230;-84
2021/06/04 05:55:48;;;;;;;31.63;17.50;;;;;;;;;;5052083;28;20584;-84
2021/06/04 05:58:14;;;;;;;35.05;19.30;;;;;;;;;;5052203;28;20054;-84
2021/06/04 06:00:43;;;;;;;32.20;17.63;;;;;;;;;;5052021;28;20025;-84
2021/06/04 06:03:09;;;;;;;34.00;18.33;;;;;;;;;;5051330;28;20117;-84
2021/06/04 06:05:34;;;;;;;30.38;14.93;;;;;;;;;;5051135;28;20059;-84
2021/06/04 06:08:00;;;;;;;35.97;17.95;;;;;;;;;;5051840;28;20017;-84
2021/06/04 06:10:25;;;;;;;39.03;18.95;;;;;;;;;;5052015;28;20083;-84
2021/06/04 06:12:51;;;;;;;30.20;17.92;;;;;;;;;;5051851;28;20368;-84
2021/06/04 06:15:17;;;;;;;24.35;14.68;;;;;;;;;;5051753;28;20485;-84
2021/06/04 06:17:42;;;;;;;21.52;13.77;;;;;;;;;;5052002;28;20021;-84
2021/06/04 06:20:09;;;;;;;26.00;14.80;;;;;;;;;;5051157;28;20373;-83
2021/06/04 06:22:35;;;;;;;21.95;12.50;;;;;;;;;;5051480;28;20013;-84
2021/06/04 06:25:00;;;;;;;28.67;15.50;;;;;;;;;;5051603;28;20079;-84
2021/06/04 06:27:25;;;;;;;30.40;16.98;;;;;;;;;;5051209;28;20009;-84
2021/06/04 06:29:51;;;;;;;27.83;16.75;;;;;;;;;;5051627;28;20031;-84
2021/06/04 06:32:20;;;;;;;28.55;16.77;;;;;;;;;;5051493;28;20021;-84
2021/06/04 06:34:46;;;;;;;31.55;16.42;;;;;;;;;;5052604;28;20025;-84
2021/06/04 06:37:11;;;;;;;28.40;15.85;;;;;;;;;;5050606;28;20680;-85
2021/06/04 06:39:36;;;;;;;25.20;15.25;;;;;;;;;;5051065;28;20118;-85
2021/06/04 06:42:03;;;;;;;33.20;15.45;;;;;;;;;;5051046;28;20076;-85
2021/06/04 06:44:29;;;;;;;30.40;16.77;;;;;;;;;;5084351;28;20032;-85
2021/06/04 06:46:54;;;;;;;32.50;16.55;;;;;;;;;;5050839;28;20460;-85
2021/06/04 06:49:20;;;;;;;40.70;18.25;;;;;;;;;;5050980;28;20464;-85
2021/06/04 06:51:45;;;;;;;34.20;18.33;;;;;;;;;;5051350;28;20079;-84
2021/06/04 06:54:15;;;;;;;32.28;18.33;;;;;;;;;;5051201;28;20028;-84
2021/06/04 06:56:41;;;;;;;34.30;19.23;;;;;;;;;;5050873;28;20053;-85
2021/06/04 06:59:06;;;;;;;39.28;19.73;;;;;;;;;;5051223;28;20534;-85
2021/06/04 07:01:31;;;;;;;30.67;19.05;;;;;;;;;;5050845;28;20029;-84
2021/06/04 07:03:57;;;;;;;31.45;17.25;;;;;;;;;;5051200;28;20075;-84
2021/06/04 07:06:23;;;;;;;33.80;17.83;;;;;;;;;;5050947;28;20107;-85
2021/06/04 07:08:49;;;;;;;30.75;17.70;;;;;;;;;;5050958;28;20028;-84
2021/06/04 07:11:16;;;;;;;30.80;17.42;;;;;;;;;;5050857;28;20017;-84
2021/06/04 07:13:41;;;;;;;27.73;15.00;;;;;;;;;;5051119;28;20389;-85
2021/06/04 07:16:08;;;;;;;36.70;17.17;;;;;;;;;;5050715;28;20036;-85
2021/06/04 07:18:34;;;;;;;33.78;17.98;;;;;;;;;;5054356;28;20025;-84
2021/06/04 07:20:59;;;;;;;32.83;15.27;;;;;;;;;;5055281;28;20024;-84
2021/06/04 07:23:26;;;;;;;33.78;18.25;;;;;;;;;;5056439;28;20021;-85
2021/06/04 07:25:52;;;;;;;32.83;17.05;;;;;;;;;;5055705;28;20033;-85
2021/06/04 07:28:18;;;;;;;28.52;15.18;;;;;;;;;;5054663;28;20028;-85
2021/06/04 07:30:45;;;;;;;28.40;14.63;;;;;;;;;;5054884;28;20372;-85
2021/06/04 07:33:14;;;;;;;24.33;11.95;;;;;;;;;;5054971;28;20396;-85
2021/06/04 07:35:40;;;;;;;18.38;9.80;;;;;;;;;;5055856;28;20480;-85
2021/06/04 07:38:06;;;;;;;11.10;6.40;;;;;;;;;;5055849;28;20031;-85
2021/06/04 07:40:31;;;;;;;14.35;7.97;;;;;;;;;;5054161;28;20108;-84
2021/06/04 07:42:58;;;;;;;15.00;7.35;;;;;;;;;;5054331;28;20029;-85
2021/06/04 07:45:25;;;;;;;14.73;8.25;;;;;;;;;;5054525;28;20024;-85
2021/06/04 07:47:50;;;;;;;13.65;7.68;;;;;;;;;;5054290;28;20401;-85
2021/06/04 07:50:15;;;;;;;21.40;9.27;;;;;;;;;;5055679;28;20013;-85
2021/06/04 07:52:41;;;;;;;27.40;12.35;;;;;;;;;;5053856;28;20013;-85
2021/06/04 07:55:08;;;;;;;17.88;10.77;;;;;;;;;;5053932;28;20021;-85
2021/06/04 07:57:34;;;;;;;16.77;9.48;;;;;;;;;;5053128;28;20036;-85
2021/06/04 07:59:59;;;;;;;25.60;10.85;;;;;;;;;;5054154;28;20380;-85
2021/06/04 08:02:24;;;;;;;22.77;8.20;;;;;;;;;;5054002;28;20362;-85
2021/06/04 08:04:51;;;;;;;23.02;10.18;;;;;;;;;;5053744;28;20539;-85
2021/06/04 08:07:16;;;;;;;23.23;12.32;;;;;;;;;;5055307;28;20088;-85
2021/06/04 08:09:42;;;;;;;20.80;11.02;;;;;;;;;;5055103;28;20047;-85
2021/06/04 08:12:08;;;;;;;28.35;10.48;;;;;;;;;;5053551;28;20479;-85
2021/06/04 08:14:33;;;;;;;21.65;10.95;;;;;;;;;;5053824;28;20025;-85
2021/06/04 08:17:00;;;;;;;27.50;11.90;;;;;;;;;;5053676;28;20530;-85
2021/06/04 08:19:26;;;;;;;27.13;14.07;;;;;;;;;;5053665;28;20021;-85
2021/06/04 08:21:52;;;;;;;24.23;12.52;;;;;;;;;;5053113;28;20048;-85
2021/06/04 08:24:20;;;;;;;21.25;12.23;;;;;;;;;;5053767;28;20124;-85
2021/06/04 08:26:46;;;;;;;33.22;14.02;;;;;;;;;;5053589;28;20019;-85
2021/06/04 08:29:12;;;;;;;27.70;15.95;;;;;;;;;;5052656;28;20009;-85
2021/06/04 08:31:37;;;;;;;33.03;15.05;;;;;;;;;;5053576;28;20013;-85
2021/06/04 08:34:03;;;;;;;25.10;12.25;;;;;;;;;;5053103;28;20082;-85
2021/06/04 08:36:31;;;;;;;30.65;15.80;;;;;;;;;;5054278;28;20025;-86
2021/06/04 08:38:58;;;;;;;24.92;10.68;;;;;;;;;;5053398;28;20017;-85
2021/06/04 08:41:33;;;;;;;26.92;13.98;;;;;;;;;;5085796;28;20028;-84
2021/06/04 08:44:22;;;;;;;25.33;12.20;;;;;;;;;;5054140;28;20028;-84
2021/06/04 08:46:52;;;;;;;24.02;11.93;;;;;;;;;;5052157;28;20122;-84
2021/06/04 08:49:37;;;;;;;33.03;13.77;;;;;;;;;;5053939;28;20028;-84
2021/06/04 08:52:12;;;;;;;29.70;16.02;;;;;;;;;;5053289;28;20052;-84
2021/06/04 08:54:44;;;;;;;36.17;16.48;;;;;;;;;;5052501;28;20533;-84
2021/06/04 08:57:12;;;;;;;27.52;15.68;;;;;;;;;;5052177;28;20017;-84
2021/06/04 08:59:38;;;;;;;36.60;16.55;;;;;;;;;;5069018;28;20024;-84
2021/06/04 09:02:11;;;;;;;33.72;17.15;;;;;;;;;;5052116;28;20087;-84
2021/06/04 09:04:40;;;;;;;27.05;14.73;;;;;;;;;;5053538;28;20017;-85
2021/06/04 09:07:08;;;;;;;25.17;13.35;;;;;;;;;;5053014;28;20043;-85
2021/06/04 09:09:36;;;;;;;28.15;15.43;;;;;;;;;;5052900;28;20117;-85
2021/06/04 09:12:04;;;;;;;35.95;18.13;;;;;;;;;;5077912;28;20029;-85
2021/06/04 09:14:33;;;;;;;29.65;16.40;;;;;;;;;;5058262;28;20021;-85
2021/06/04 09:17:02;;;;;;;28.88;16.65;;;;;;;;;;5052721;28;20029;-85
2021/06/04 09:19:50;;;;;;;37.88;18.92;;;;;;;;;;5078027;28;20079;-85
2021/06/04 09:22:15;;;;;;;40.13;19.00;;;;;;;;;;5051879;28;20365;-85
2021/06/04 09:24:42;;;;;;;30.80;17.63;;;;;;;;;;5053080;28;20079;-86
2021/06/04 09:27:22;;;;;;;36.05;16.15;;;;;;;;;;5053451;28;20024;-86
2021/06/04 09:30:02;;;;;;;43.25;20.33;;;;;;;;;;5052490;28;20049;-86
2021/06/04 09:32:27;;;;;;;38.03;18.65;;;;;;;;;;5052543;28;20041;-86
2021/06/04 09:35:06;;;;;;;33.03;17.77;;;;;;;;;;5052324;28;20029;-87
2021/06/04 09:37:32;;;;;;;30.67;14.93;;;;;;;;;;5051661;28;20036;-86
2021/06/04 09:40:15;;;;;;;29.15;16.55;;;;;;;;;;5053672;28;20013;-86
2021/06/04 09:42:48;;;;;;;42.25;19.25;;;;;;;;;;5052038;28;20075;-86
2021/06/04 09:45:15;;;;;;;29.73;16.00;;;;;;;;;;5052260;28;20526;-86
2021/06/04 09:47:43;;;;;;;35.03;18.33;;;;;;;;;;5051787;28;20009;-86
2021/06/04 09:50:11;;;;;;;33.13;17.92;;;;;;;;;;5051840;28;20023;-86
2021/06/04 09:52:38;;;;;;;30.75;18.58;;;;;;;;;;5050697;28;20032;-86
2021/06/04 09:55:22;;;;;;;26.48;14.70;;;;;;;;;;5055786;28;20043;-86
2021/06/04 09:57:58;;;;;;;30.25;18.30;;;;;;;;;;5052109;28;20060;-87
2021/06/04 10:00:26;;;;;;;29.75;16.65;;;;;;;;;;5053124;28;20031;-84
2021/06/04 10:03:03;;;;;;;35.25;16.95;;;;;;;;;;5051806;28;20044;-86
2021/06/04 10:05:30;;;;;;;32.55;17.98;;;;;;;;;;5052014;28;20071;-86
2021/06/04 10:07:59;;;;;;;37.63;18.65;;;;;;;;;;5051725;28;20013;-87
2021/06/04 10:10:27;;;;;;;37.20;21.23;;;;;;;;;;5051896;28;20009;-87
2021/06/04 10:12:58;;;;;;;33.08;19.88;;;;;;;;;;5051734;28;20154;-87
2021/06/04 10:15:26;;;;;;;32.30;17.40;;;;;;;;;;5051714;28;20025;-87
2021/06/04 10:20:26;;;;;;;37.60;18.67;;;;;;;;;;5053271;28;20039;-86
2021/06/04 10:23:03;;;;;;;39.10;17.95;;;;;;;;;;5051049;28;20316;-87
2021/06/04 10:25:36;;;;;;;39.80;20.40;;;;;;;;;;5051062;28;20032;-87
2021/06/04 10:28:01;;;;;;;26.63;16.38;;;;;;;;;;5051555;28;20474;-87
2021/06/04 10:30:47;;;;;;;31.60;16.67;;;;;;;;;;5051164;28;20029;-87
2021/06/04 10:33:27;;;;;;;32.35;19.17;;;;;;;;;;5051055;28;20047;-87
2021/06/04 10:35:56;;;;;;;27.85;15.55;;;;;;;;;;5050362;28;20227;-86
2021/06/04 10:38:31;;;;;;;36.75;18.42;;;;;;;;;;5051342;28;20071;-87
2021/06/04 10:41:09;;;;;;;37.17;19.95;;;;;;;;;;5051150;28;20070;-87
2021/06/04 10:43:44;;;;;;;35.33;19.58;;;;;;;;;;5051218;28;20039;-87
2021/06/04 10:46:17;;;;;;;37.70;20.02;;;;;;;;;;5050729;28;20029;-87
2021/06/04 10:48:45;;;;;;;34.65;19.15;;;;;;;;;;5052378;28;20024;-87
2021/06/04 10:51:15;;;;;;;44.47;18.42;;;;;;;;;;5049866;28;20013;-87
2021/06/04 10:53:47;;;;;;;34.28;17.27;;;;;;;;;;5047417;28;20013;-86
2021/06/04 10:56:12;;;;;;;;;;;;;;;;;;5051088;28;20048;-87
2021/06/04 10:58:47;;;;;;;38.55;20.45;;;;;;;;;;5050984;28;19998;-86
2021/06/04 11:01:14;;;;;;;37.97;19.13;;;;;;;;;;5050859;28;20547;-86
2021/06/04 11:03:58;;;;;;;30.88;18.98;;;;;;;;;;5051914;28;20017;-86
2021/06/04 11:06:41;;;;;;;30.23;19.85;;;;;;;;;;5050456;28;20033;-86
2021/06/04 11:09:15;;;;;;;31.67;19.77;;;;;;;;;;5050390;28;20059;-87
2021/06/04 11:11:47;;;;;;;28.95;18.92;;;;;;;;;;5050528;28;20032;-85
2021/06/04 11:14:33;;;;;;;31.00;20.13;;;;;;;;;;5050410;28;20035;-85
2021/06/04 11:17:11;;;;;;;40.35;19.02;;;;;;;;;;5050614;28;20469;-86
2021/06/04 11:19:43;;;;;;;29.23;17.40;;;;;;;;;;5077477;28;20353;-86
2021/06/04 11:22:14;;;;;;;33.40;16.67;;;;;;;;;;5048904;28;20017;-86
2021/06/04 11:24:58;;;;;;;37.47;19.13;;;;;;;;;;5047273;28;20032;-86
2021/06/04 11:27:24;;;;;;;32.25;19.80;;;;;;;;;;5050421;28;20070;-86
2021/06/04 11:29:50;;;;;;;30.42;17.83;;;;;;;;;;5051756;28;20053;-86
2021/06/04 11:32:28;;;;;;;27.75;16.23;;;;;;;;;;5051565;28;20056;-87
2021/06/04 11:35:04;;;;;;;30.70;18.15;;;;;;;;;;5051477;28;20049;-87
2021/06/04 11:37:29;;;;;;;31.95;17.80;;;;;;;;;;5051618;28;20025;-87
2021/06/04 11:40:00;;;;;;;30.88;16.13;;;;;;;;;;5052038;28;20620;-87
2021/06/04 11:42:28;;;;;;;32.67;16.63;;;;;;;;;;5050227;28;20286;-86
2021/06/04 11:44:55;;;;;;;33.22;16.38;;;;;;;;;;5050481;28;20361;-87
2021/06/04 11:47:23;;;;;;;29.10;16.02;;;;;;;;;;5050265;28;20021;-87
2021/06/04 11:49:57;;;;;;;26.38;15.43;;;;;;;;;;5052254;28;20111;-86
2021/06/04 11:52:28;;;;;;;32.10;15.45;;;;;;;;;;5050010;28;20013;-86
2021/06/04 11:55:08;;;;;;;27.27;16.77;;;;;;;;;;5051540;28;20047;-86
2021/06/04 11:57:33;;;;;;;32.28;16.13;;;;;;;;;;5050029;28;20407;-86
2021/06/04 12:00:01;;;;;;;29.08;15.82;;;;;;;;;;5084070;28;20111;-86
2021/06/04 12:02:29;;;;;;;30.85;17.17;;;;;;;;;;5050796;28;20262;-86
2021/06/04 12:05:13;;;;;;;38.58;18.48;;;;;;;;;;5082572;28;20029;-86
2021/06/04 12:07:40;;;;;;;31.77;15.63;;;;;;;;;;5048066;28;20442;-86
2021/06/04 12:10:06;;;;;;;31.60;15.70;;;;;;;;;;5055125;28;20456;-86
2021/06/04 12:12:32;;;;;;;33.03;14.70;;;;;;;;;;5055465;28;20021;-86
2021/06/04 12:14:57;;;;;;;29.58;14.77;;;;;;;;;;5053913;28;20021;-85
2021/06/04 12:17:28;;;;;;;34.80;15.60;;;;;;;;;;5087735;28;20020;-85
2021/06/04 12:20:12;;;;;;;24.73;15.20;;;;;;;;;;5086185;28;20620;-85
2021/06/04 12:22:43;;;;;;;30.67;16.00;;;;;;;;;;5042298;28;20032;-85
2021/06/04 12:25:10;;;;;;;23.42;13.75;;;;;;;;;;5053797;28;20167;-86
2021/06/04 12:27:42;;;;;;;27.23;15.25;;;;;;;;;;5053489;28;20024;-85
2021/06/04 12:30:07;;;;;;;;;;;;;;;;;;5054213;28;20484;-85
2021/06/04 12:32:32;;;;;;;20.55;13.80;;;;;;;;;;5054199;28;20348;-85
2021/06/04 12:35:00;;;;;;;22.42;13.13;;;;;;;;;;5054985;28;20036;-85
2021/06/04 12:37:25;;;;;;;28.45;14.63;;;;;;;;;;5054661;28;20461;-85
2021/06/04 12:39:53;;;;;;;32.08;15.13;;;;;;;;;;5087093;28;20027;-86
2021/06/04 12:42:19;;;;;;;32.05;15.85;;;;;;;;;;5053443;28;20039;-85
2021/06/04 12:44:59;;;;;;;20.40;12.23;;;;;;;;;;5087256;28;20025;-83
2021/06/04 12:47:30;;;;;;;23.77;13.43;;;;;;;;;;5054760;28;20013;-84
2021/06/04 12:50:07;;;;;;;22.40;13.47;;;;;;;;;;5053605;28;20028;-83
2021/06/04 12:52:32;;;;;;;26.00;13.63;;;;;;;;;;5048808;28;20265;-83
2021/06/04 12:55:14;;;;;;;28.45;12.80;;;;;;;;;;5052413;28;20029;-83
2021/06/04 12:57:39;;;;;;;26.92;13.10;;;;;;;;;;5053412;28;20499;-83
2021/06/04 13:00:19;;;;;;;31.63;13.48;;;;;;;;;;5052899;28;20159;-84
2021/06/04 13:02:45;;;;;;;32.67;13.32;;;;;;;;;;5050599;28;20029;-84
2021/06/04 13:05:11;;;;;;;28.38;12.20;;;;;;;;;;5053210;28;20510;-84
2021/06/04 13:07:38;;;;;;;19.90;11.85;;;;;;;;;;5053097;28;20357;-84
2021/06/04 13:10:21;;;;;;;23.77;14.43;;;;;;;;;;5054534;28;20028;-84
2021/06/04 13:12:47;;;;;;;24.90;12.73;;;;;;;;;;5053044;28;20053;-83
2021/06/04 13:15:15;;;;;;;25.27;13.15;;;;;;;;;;5052385;28;20029;-83
2021/06/04 13:17:41;;;;;;;23.90;13.40;;;;;;;;;;5054247;28;20025;-83
2021/06/04 13:20:09;;;;;;;21.00;12.27;;;;;;;;;;5086343;28;20108;-84
2021/06/04 13:22:35;;;;;;;24.38;12.57;;;;;;;;;;5053275;28;20469;-83
2021/06/04 13:25:12;;;;;;;21.25;12.32;;;;;;;;;;5052373;28;20021;-84
2021/06/04 13:27:37;;;;;;;24.00;13.05;;;;;;;;;;5039602;28;20751;-84
2021/06/04 13:30:07;;;;;;;25.17;13.77;;;;;;;;;;5053968;28;20028;-83
2021/06/04 13:32:39;;;;;;;19.73;12.05;;;;;;;;;;5052452;28;20028;-83
2021/06/04 13:35:12;;;;;;;21.13;12.00;;;;;;;;;;5053548;28;20043;-84
2021/06/04 13:37:42;;;;;;;25.30;12.45;;;;;;;;;;5075877;28;20024;-84
2021/06/04 13:40:10;;;;;;;21.63;11.55;;;;;;;;;;5053958;28;20468;-84
2021/06/04 13:42:37;;;;;;;25.48;11.75;;;;;;;;;;5053624;28;20035;-84
2021/06/04 13:45:03;;;;;;;24.58;12.40;;;;;;;;;;5053365;28;20559;-84
2021/06/04 13:47:32;;;;;;;20.83;12.35;;;;;;;;;;5051016;28;20017;-83
2021/06/04 13:50:12;;;;;;;23.45;13.85;;;;;;;;;;5050859;28;20126;-84
2021/06/04 13:52:37;;;;;;;29.13;15.70;;;;;;;;;;5080046;28;20021;-83
2021/06/04 13:55:03;;;;;;;25.50;15.45;;;;;;;;;;5052296;28;20075;-82
2021/06/04 13:57:28;;;;;;;28.58;15.63;;;;;;;;;;5052017;28;20025;-83
2021/06/04 14:00:11;;;;;;;35.47;19.25;;;;;;;;;;5053247;28;20020;-83
2021/06/04 14:02:37;;;;;;;34.22;18.25;;;;;;;;;;5084042;28;20112;-83
2021/06/04 14:05:32;;;;;;;26.85;16.45;;;;;;;;;;5052110;28;20547;-83
2021/06/04 14:08:05;;;;;;;48.97;20.08;;;;;;;;;;5051542;28;20033;-83
2021/06/04 14:10:37;;;;;;;34.92;18.63;;;;;;;;;;5052126;28;20017;-84
2021/06/04 14:13:07;;;;;;;38.95;19.98;;;;;;;;;;5051299;28;20107;-84
2021/06/04 14:15:32;;;;;;;34.30;20.08;;;;;;;;;;5051767;28;20052;-84
2021/06/04 14:17:58;;;;;;;38.15;23.33;;;;;;;;;;5085449;28;20052;-84
2021/06/04 14:20:37;;;;;;;31.17;20.77;;;;;;;;;;5052426;28;20028;-84
2021/06/04 14:23:16;;;;;;;27.85;18.35;;;;;;;;;;5051722;28;20033;-84
2021/06/04 14:25:42;;;;;;;21.17;13.82;;;;;;;;;;5051316;28;20052;-84
2021/06/04 14:28:20;;;;;;;23.17;13.10;;;;;;;;;;5052615;28;20095;-85
2021/06/04 14:31:04;;;;;;;27.77;13.35;;;;;;;;;;5050982;28;20015;-83